Time;durP1;ratioP1;P1;durP2;ratioP2;P2;SDS_P1;SDS_P2;PMS_P1;PMS_P2;Temp;Humidity;BMP_temperature;BMP_pressure;BME280_temperature;BME280_humidity;BME280_pressure;Samples;Min_cycle;Max_cycle;Signal;HPM_P1;HPM_P2
2022/05/23 00:02:18;;;;;;;3.88;3.13;;;12.90;99.90;;;;;;5042362;28;20063;-87
2022/05/23 00:04:44;;;;;;;4.32;3.20;;;12.90;99.90;;;;;;5031377;28;20037;-88
2022/05/23 00:07:22;;;;;;;5.00;3.30;;;12.90;99.90;;;;;;5038845;28;20052;-87
2022/05/23 00:09:49;;;;;;;5.38;3.00;;;12.90;1.00;;;;;;5036839;28;20044;-87
2022/05/23 00:12:18;;;;;;;5.78;3.35;;;12.80;1.00;;;;;;5021936;28;20053;-87
2022/05/23 00:14:47;;;;;;;4.55;3.17;;;12.70;1.00;;;;;;5030969;28;20069;-88
2022/05/23 00:17:12;;;;;;;5.97;3.10;;;12.70;1.00;;;;;;5025988;28;20108;-88
2022/05/23 00:19:39;;;;;;;7.40;3.28;;;12.70;1.00;;;;;;5047707;28;20132;-87
2022/05/23 00:22:05;;;;;;;6.55;3.08;;;12.70;1.00;;;;;;5043678;28;20152;-88
2022/05/23 00:24:31;;;;;;;5.20;3.40;;;12.70;99.90;;;;;;5044395;28;20116;-88
2022/05/23 00:26:56;;;;;;;5.90;3.28;;;12.60;1.00;;;;;;5048210;28;20494;-88
2022/05/23 00:29:23;;;;;;;5.55;3.20;;;12.60;1.00;;;;;;5025573;28;20053;-88
2022/05/23 00:37:19;;;;;;;;;;;12.40;1.00;;;;;;5036614;28;20041;-87
2022/05/23 00:39:45;;;;;;;5.70;3.40;;;12.40;1.00;;;;;;5022400;28;19966;-87
2022/05/23 00:44:59;;;;;;;5.07;3.15;;;12.30;1.00;;;;;;5067276;28;20398;-87
2022/05/23 00:47:26;;;;;;;7.05;3.40;;;12.30;1.00;;;;;;5036907;28;20040;-87
2022/05/23 00:49:53;;;;;;;7.50;3.75;;;12.30;1.00;;;;;;5029684;28;20048;-87
2022/05/23 00:52:33;;;;;;;6.50;3.55;;;12.20;1.00;;;;;;5043550;28;20041;-87
2022/05/23 00:55:04;;;;;;;5.47;3.60;;;12.20;1.00;;;;;;5025496;28;20135;-87
2022/05/23 00:57:35;;;;;;;6.32;3.38;;;12.20;1.00;;;;;;5030284;28;20120;-87
2022/05/23 01:00:06;;;;;;;5.20;3.38;;;12.10;1.00;;;;;;5045524;28;20041;-88
2022/05/23 01:02:32;;;;;;;5.40;3.40;;;12.10;1.00;;;;;;5049950;28;21004;-87
2022/05/23 01:04:58;;;;;;;6.07;3.72;;;12.00;1.00;;;;;;5040937;28;20033;-87
2022/05/23 01:07:24;;;;;;;5.15;3.28;;;12.10;1.00;;;;;;5031497;28;20078;-87
2022/05/23 01:09:51;;;;;;;4.70;3.58;;;12.10;1.00;;;;;;5051437;28;20033;-87
2022/05/23 01:12:17;;;;;;;5.63;3.97;;;12.10;1.00;;;;;;5070511;28;20041;-87
2022/05/23 01:14:51;;;;;;;4.18;3.67;;;12.00;1.00;;;;;;5037014;28;20181;-87
2022/05/23 01:17:18;;;;;;;5.70;3.80;;;12.00;1.00;;;;;;5071180;28;20041;-86
2022/05/23 01:19:44;;;;;;;7.40;3.85;;;12.00;1.00;;;;;;5031198;28;20348;-87
2022/05/23 01:22:18;;;;;;;6.88;3.75;;;11.90;1.00;;;;;;5028442;28;20041;-86
2022/05/23 01:25:19;;;;;;;6.97;4.07;;;11.90;1.00;;;;;;5045536;28;20099;-87
2022/05/23 01:27:48;;;;;;;7.65;3.97;;;11.90;1.00;;;;;;5034732;28;20128;-87
2022/05/23 01:30:15;;;;;;;5.88;4.07;;;11.90;1.00;;;;;;5028021;28;20080;-87
2022/05/23 01:32:41;;;;;;;4.18;3.70;;;11.80;1.00;;;;;;5041331;28;21865;-87
2022/05/23 01:35:08;;;;;;;7.20;4.28;;;11.80;1.00;;;;;;5026534;28;20043;-87
2022/05/23 01:37:34;;;;;;;5.82;3.92;;;11.70;1.00;;;;;;5042146;28;20101;-87
2022/05/23 01:40:00;;;;;;;5.03;3.90;;;11.80;1.00;;;;;;5050709;28;20056;-86
2022/05/23 01:42:25;;;;;;;5.32;4.55;;;11.70;1.00;;;;;;5028991;28;20094;-87
2022/05/23 01:44:51;;;;;;;4.90;3.90;;;11.70;1.00;;;;;;5063955;28;20116;-87
2022/05/23 01:47:18;;;;;;;5.88;4.15;;;11.80;1.00;;;;;;5027472;28;20100;-87
2022/05/23 01:49:44;;;;;;;6.10;4.13;;;11.80;1.00;;;;;;5054437;28;20483;-87
2022/05/23 01:52:11;;;;;;;5.65;4.18;;;11.90;1.00;;;;;;5069725;28;20299;-87
2022/05/23 01:54:38;;;;;;;5.55;4.22;;;11.90;1.00;;;;;;5025642;28;20043;-87
2022/05/23 01:57:04;;;;;;;5.43;4.05;;;11.90;1.00;;;;;;5048064;28;20538;-87
2022/05/23 02:02:14;;;;;;;6.35;4.25;;;12.00;1.00;;;;;;5037964;28;20048;-86
2022/05/23 02:04:40;;;;;;;5.30;4.32;;;12.10;1.00;;;;;;5038263;28;20047;-86
2022/05/23 02:07:06;;;;;;;6.60;4.80;;;12.10;1.00;;;;;;5028742;28;20029;-86
2022/05/23 02:09:33;;;;;;;8.52;4.97;;;12.10;1.00;;;;;;5018553;28;20033;-87
2022/05/23 02:11:58;;;;;;;7.32;4.95;;;12.20;1.00;;;;;;5019342;28;20282;-87
2022/05/23 02:14:24;;;;;;;8.68;4.70;;;12.20;1.00;;;;;;5027368;28;20262;-87
2022/05/23 02:16:50;;;;;;;7.97;4.88;;;12.30;1.00;;;;;;5022456;28;20037;-87
2022/05/23 02:19:16;;;;;;;5.13;4.60;;;12.30;1.00;;;;;;5037713;28;20064;-86
2022/05/23 02:21:41;;;;;;;5.63;5.00;;;12.30;1.00;;;;;;5028515;28;20040;-87
2022/05/23 02:24:07;;;;;;;7.55;4.65;;;12.40;1.00;;;;;;5044003;28;20479;-87
2022/05/23 02:26:33;;;;;;;6.63;5.15;;;12.40;1.00;;;;;;5046146;28;20044;-87
2022/05/23 02:29:00;;;;;;;9.60;4.82;;;12.40;1.00;;;;;;5036479;28;20568;-87
2022/05/23 02:31:26;;;;;;;7.03;4.90;;;12.40;1.00;;;;;;5029043;28;20496;-86
2022/05/23 02:33:52;;;;;;;7.13;5.18;;;12.40;1.00;;;;;;5024952;28;20041;-87
2022/05/23 02:36:18;;;;;;;7.15;4.78;;;12.50;1.00;;;;;;5024345;28;20041;-88
2022/05/23 02:38:46;;;;;;;8.40;5.35;;;12.50;1.00;;;;;;5026963;28;20453;-87
2022/05/23 02:41:12;;;;;;;8.70;5.18;;;12.50;1.00;;;;;;5024660;28;20079;-86
2022/05/23 02:43:37;;;;;;;6.82;5.05;;;12.50;1.00;;;;;;5039330;28;20801;-87
2022/05/23 02:46:03;;;;;;;6.53;4.93;;;12.50;1.00;;;;;;5024365;28;20113;-87
2022/05/23 02:48:29;;;;;;;8.98;5.40;;;12.50;1.00;;;;;;5025601;28;20041;-87
2022/05/23 02:50:55;;;;;;;8.43;5.13;;;12.50;1.00;;;;;;5041456;28;20033;-87
2022/05/23 02:53:20;;;;;;;10.50;5.05;;;12.50;1.00;;;;;;5039306;28;20174;-87
2022/05/23 02:55:46;;;;;;;7.90;5.70;;;12.50;1.00;;;;;;5066776;28;20260;-86
2022/05/23 02:58:14;;;;;;;8.10;5.10;;;12.50;1.00;;;;;;5039342;28;20041;-87
2022/05/23 03:00:40;;;;;;;10.65;5.57;;;12.50;1.00;;;;;;5065758;28;20049;-87
2022/05/23 03:03:09;;;;;;;8.32;5.60;;;12.40;1.00;;;;;;5042227;28;20041;-87
2022/05/23 03:05:53;;;;;;;6.78;5.53;;;12.40;1.00;;;;;;5042250;28;20063;-85
2022/05/23 03:08:22;;;;;;;7.38;5.35;;;12.40;1.00;;;;;;5043187;28;20160;-87
2022/05/23 03:10:49;;;;;;;9.77;5.53;;;12.40;1.00;;;;;;5051807;28;20555;-87
2022/05/23 03:13:15;;;;;;;11.02;5.65;;;12.30;1.00;;;;;;5026085;28;20627;-87
2022/05/23 03:15:41;;;;;;;6.70;5.43;;;12.30;1.00;;;;;;5069722;28;20215;-87
2022/05/23 03:18:08;;;;;;;8.82;5.93;;;12.30;1.00;;;;;;5028159;28;20040;-87
2022/05/23 03:20:33;;;;;;;7.28;6.07;;;12.30;1.00;;;;;;5053540;28;20069;-87
2022/05/23 03:28:31;;;;;;;8.40;6.43;;;12.30;1.00;;;;;;5063536;28;20337;-86
2022/05/23 03:30:57;;;;;;;9.02;5.25;;;12.30;1.00;;;;;;5023198;28;20244;-86
2022/05/23 03:33:23;;;;;;;7.28;5.70;;;12.30;1.00;;;;;;5021824;28;21482;-87
2022/05/23 03:35:49;;;;;;;7.25;6.20;;;12.30;1.00;;;;;;5027739;28;20123;-87
2022/05/23 03:38:14;;;;;;;8.32;5.78;;;12.20;1.00;;;;;;5035707;28;20180;-86
2022/05/23 03:40:41;;;;;;;7.82;6.13;;;12.20;1.00;;;;;;5021977;28;20537;-87
2022/05/23 03:43:07;;;;;;;6.85;5.68;;;12.30;1.00;;;;;;5026470;28;20284;-87
2022/05/23 03:45:34;;;;;;;9.88;6.22;;;12.30;1.00;;;;;;5024136;28;20029;-87
2022/05/23 03:48:00;;;;;;;6.72;6.03;;;12.30;1.00;;;;;;5027365;28;20039;-87
2022/05/23 03:50:31;;;;;;;8.73;6.13;;;12.30;1.00;;;;;;5026010;28;20083;-87
2022/05/23 03:52:57;;;;;;;6.60;5.90;;;12.40;1.00;;;;;;5030485;28;20593;-87
2022/05/23 03:55:24;;;;;;;8.32;5.80;;;12.40;1.00;;;;;;5047896;28;20040;-87
2022/05/23 03:57:49;;;;;;;9.00;6.20;;;12.40;1.00;;;;;;5046730;28;20467;-87
2022/05/23 04:00:17;;;;;;;8.02;6.10;;;12.40;1.00;;;;;;5025672;28;20048;-87
2022/05/23 04:02:43;;;;;;;7.50;6.72;;;12.40;1.00;;;;;;5023267;28;20075;-87
2022/05/23 04:05:11;;;;;;;8.88;6.32;;;12.40;1.00;;;;;;5022997;28;20148;-87
2022/05/23 04:07:38;;;;;;;8.43;6.20;;;12.40;1.00;;;;;;5021965;28;20064;-87
2022/05/23 04:10:11;;;;;;;8.30;6.32;;;12.40;1.00;;;;;;5025352;28;20036;-87
2022/05/23 04:12:37;;;;;;;7.43;6.22;;;12.40;1.00;;;;;;5035741;28;20136;-87
2022/05/23 04:15:07;;;;;;;7.70;6.30;;;12.40;1.00;;;;;;5025005;28;20326;-87
2022/05/23 04:17:33;;;;;;;6.93;6.13;;;12.50;1.00;;;;;;5021961;28;20044;-86
2022/05/23 04:19:59;;;;;;;8.63;5.95;;;12.50;1.00;;;;;;5024140;28;20270;-87
2022/05/23 04:22:25;;;;;;;7.63;6.20;;;12.50;1.00;;;;;;5022447;28;20033;-86
2022/05/23 04:24:51;;;;;;;8.57;6.15;;;12.60;1.00;;;;;;5049799;28;20685;-86
2022/05/23 04:27:19;;;;;;;7.53;6.18;;;12.60;1.00;;;;;;5046355;28;20047;-87
2022/05/23 04:29:45;;;;;;;8.15;6.25;;;12.60;1.00;;;;;;5050872;28;20297;-86
2022/05/23 04:35:13;;;;;;;8.73;6.68;;;12.70;1.00;;;;;;5066700;28;20683;-86
2022/05/23 04:37:45;;;;;;;8.93;5.70;;;12.70;1.00;;;;;;5028758;28;20052;-87
2022/05/23 04:40:16;;;;;;;9.40;6.80;;;12.90;1.00;;;;;;5039743;28;20044;-87
2022/05/23 04:42:42;;;;;;;8.40;6.22;;;12.90;1.00;;;;;;5024158;28;20850;-87
2022/05/23 04:45:12;;;;;;;7.05;6.30;;;13.00;1.00;;;;;;5028236;28;20135;-85
2022/05/23 04:50:23;;;;;;;7.78;6.30;;;13.20;1.00;;;;;;5045223;28;20496;-86
2022/05/23 04:52:50;;;;;;;14.18;6.78;;;13.20;1.00;;;;;;5026851;28;20037;-86
2022/05/23 04:55:20;;;;;;;7.10;6.40;;;13.20;1.00;;;;;;5024893;28;20036;-87
2022/05/23 04:57:46;;;;;;;10.38;6.45;;;13.30;1.00;;;;;;5030177;28;20119;-86
2022/05/23 05:00:17;;;;;;;8.85;5.85;;;13.30;1.00;;;;;;5018907;28;20094;-87
2022/05/23 05:02:43;;;;;;;7.30;6.18;;;13.40;1.00;;;;;;5038994;28;20045;-86
2022/05/23 05:05:08;;;;;;;7.43;6.40;;;13.40;1.00;;;;;;5050209;28;20087;-86
2022/05/23 05:07:34;;;;;;;9.38;6.53;;;13.50;1.00;;;;;;5072404;28;20392;-87
2022/05/23 05:10:00;;;;;;;7.10;6.40;;;13.70;1.00;;;;;;5029140;28;20041;-87
2022/05/23 05:12:25;;;;;;;10.10;7.72;;;13.80;1.00;;;;;;5053867;28;20047;-86
2022/05/23 05:14:51;;;;;;;7.95;6.57;;;13.90;1.00;;;;;;5045466;28;20050;-87
2022/05/23 05:17:17;;;;;;;7.45;6.25;;;14.00;1.00;;;;;;5026179;28;20045;-86
2022/05/23 05:19:43;;;;;;;7.50;6.32;;;14.10;99.90;;;;;;5068723;28;20175;-87
2022/05/23 05:22:08;;;;;;;7.35;6.15;;;14.00;1.00;;;;;;5030158;28;20090;-87
2022/05/23 05:24:55;;;;;;;7.57;6.43;;;14.10;1.00;;;;;;5043609;28;20041;-88
2022/05/23 05:27:21;;;;;;;8.73;6.53;;;14.10;99.90;;;;;;5048876;28;20403;-86
2022/05/23 05:29:46;;;;;;;8.75;6.22;;;14.10;99.90;;;;;;5028876;28;20041;-86
2022/05/23 05:32:15;;;;;;;6.82;6.00;;;14.10;1.00;;;;;;5028654;28;20409;-86
2022/05/23 05:34:58;;;;;;;7.35;6.28;;;14.20;1.00;;;;;;5055835;28;20073;-87
2022/05/23 05:37:34;;;;;;;7.72;6.40;;;14.30;1.00;;;;;;5044086;28;20041;-87
2022/05/23 05:40:03;;;;;;;10.10;6.50;;;14.30;1.00;;;;;;5041271;28;20025;-86
2022/05/23 05:42:36;;;;;;;7.75;6.30;;;14.40;99.90;;;;;;5026768;28;20041;-87
2022/05/23 05:45:13;;;;;;;9.63;6.55;;;14.50;99.90;;;;;;5030036;28;20569;-87
2022/05/23 05:47:42;;;;;;;8.63;5.85;;;14.50;1.00;;;;;;5040876;28;20036;-87
2022/05/23 05:50:30;;;;;;;9.35;6.43;;;14.50;99.90;;;;;;5044252;28;20032;-87
2022/05/23 05:53:00;;;;;;;10.48;6.28;;;14.50;99.90;;;;;;5054769;28;20040;-87
2022/05/23 05:55:26;;;;;;;7.65;6.82;;;14.50;1.00;;;;;;5041690;28;20435;-86
2022/05/23 05:57:55;;;;;;;8.07;6.50;;;14.70;1.00;;;;;;5031801;28;20052;-87
2022/05/23 06:00:20;;;;;;;7.30;6.57;;;14.80;99.90;;;;;;5030109;28;20041;-86
2022/05/23 06:02:47;;;;;;;8.43;6.40;;;14.90;99.90;;;;;;5032588;28;20044;-86
2022/05/23 06:05:12;;;;;;;8.88;6.47;;;15.00;99.90;;;;;;5038637;28;20056;-86
2022/05/23 06:13:09;;;;;;;9.32;6.60;;;15.10;99.90;;;;;;5046991;28;20366;-87
2022/05/23 06:15:35;;;;;;;8.32;6.47;;;15.30;99.90;;;;;;5037086;28;20103;-86
2022/05/23 06:18:01;;;;;;;7.80;6.35;;;15.50;99.90;;;;;;5048343;28;20079;-87
2022/05/23 06:20:26;;;;;;;9.75;6.68;;;15.50;99.90;;;;;;5023552;28;20090;-87
2022/05/23 06:22:52;;;;;;;8.52;6.00;;;15.70;99.90;;;;;;5052766;28;20185;-86
2022/05/23 06:25:19;;;;;;;9.13;6.43;;;15.90;99.90;;;;;;5026931;28;20040;-87
2022/05/23 06:27:45;;;;;;;8.23;5.95;;;16.10;99.90;;;;;;5020655;28;20029;-87
2022/05/23 06:30:13;;;;;;;7.35;5.93;;;16.20;99.90;;;;;;5025332;28;20072;-87
2022/05/23 06:32:39;;;;;;;8.35;6.10;;;16.40;99.90;;;;;;5023759;28;20681;-86
2022/05/23 06:35:08;;;;;;;7.95;6.22;;;16.40;99.90;;;;;;5025858;28;20036;-86
2022/05/23 06:37:35;;;;;;;9.55;6.00;;;16.50;99.90;;;;;;5018347;28;20049;-86
2022/05/23 06:40:06;;;;;;;9.63;6.00;;;16.60;99.90;;;;;;5050157;28;20074;-87
2022/05/23 06:42:32;;;;;;;10.02;6.32;;;16.70;99.90;;;;;;5056021;28;21010;-87
2022/05/23 06:45:02;;;;;;;6.78;6.10;;;16.70;99.90;;;;;;5043324;28;20037;-87
2022/05/23 06:47:28;;;;;;;9.77;6.28;;;16.70;99.90;;;;;;5053506;28;20047;-87
2022/05/23 06:49:54;;;;;;;9.38;6.03;;;16.70;99.90;;;;;;5026329;28;20052;-87
2022/05/23 06:52:23;;;;;;;7.25;5.53;;;16.90;99.90;;;;;;5071166;28;20049;-86
2022/05/23 06:54:49;;;;;;;7.05;5.72;;;17.10;99.90;;;;;;5044877;28;20040;-87
2022/05/23 06:57:15;;;;;;;7.78;5.78;;;17.20;99.90;;;;;;5031362;28;20039;-86
2022/05/23 06:59:41;;;;;;;8.10;5.60;;;17.20;99.90;;;;;;5045126;28;20506;-86
2022/05/23 07:02:09;;;;;;;7.65;6.18;;;17.30;99.90;;;;;;5048371;28;20094;-86
2022/05/23 07:12:49;;;;;;;9.75;5.65;;;17.80;99.90;;;;;;5041148;28;20044;-86
2022/05/23 07:15:15;;;;;;;9.43;5.50;;;17.90;99.90;;;;;;5023449;28;20035;-87
2022/05/23 07:17:40;;;;;;;6.20;5.47;;;18.10;99.90;;;;;;5020490;28;20041;-86
2022/05/23 07:20:07;;;;;;;8.10;5.45;;;18.10;99.90;;;;;;5042706;28;20408;-87
2022/05/23 07:22:35;;;;;;;12.05;5.47;;;18.30;99.90;;;;;;5040723;28;20252;-86
2022/05/23 07:25:01;;;;;;;8.90;5.82;;;18.50;99.90;;;;;;5045890;28;20028;-87
2022/05/23 07:27:28;;;;;;;10.50;5.40;;;18.50;99.90;;;;;;5028219;28;20499;-86
2022/05/23 07:29:55;;;;;;;9.35;5.18;;;18.60;99.90;;;;;;5025765;28;20049;-86
2022/05/23 07:32:20;;;;;;;8.32;5.47;;;18.70;99.90;;;;;;5030346;28;20037;-87
2022/05/23 07:34:46;;;;;;;9.48;5.55;;;18.80;99.90;;;;;;5030237;28;20109;-87
2022/05/23 07:37:15;;;;;;;7.68;5.25;;;18.80;99.90;;;;;;5038034;28;20056;-87
2022/05/23 07:39:42;;;;;;;8.05;5.55;;;19.00;99.90;;;;;;5022541;28;20139;-87
2022/05/23 07:42:09;;;;;;;8.57;5.53;;;18.90;99.90;;;;;;5046166;28;20215;-86
2022/05/23 07:44:39;;;;;;;7.82;5.57;;;19.30;99.90;;;;;;5027105;28;20323;-87
2022/05/23 07:47:06;;;;;;;10.23;5.40;;;19.40;99.90;;;;;;5052379;28;20037;-86
2022/05/23 07:49:33;;;;;;;8.40;5.97;;;19.60;99.90;;;;;;5044967;28;20033;-86
2022/05/23 07:52:01;;;;;;;7.15;5.70;;;19.60;99.90;;;;;;5028898;28;20066;-87
2022/05/23 08:02:40;;;;;;;11.93;5.60;;;20.10;99.90;;;;;;5042914;28;20198;-86
2022/05/23 08:05:09;;;;;;;7.20;5.20;;;20.20;99.90;;;;;;5027892;28;20143;-86
2022/05/23 08:07:35;;;;;;;8.45;5.75;;;20.30;99.90;;;;;;5058930;28;20094;-87
2022/05/23 08:10:05;;;;;;;7.97;5.65;;;20.60;99.90;;;;;;5025359;28;20037;-86
2022/05/23 08:12:31;;;;;;;9.75;5.40;;;20.60;99.90;;;;;;5024439;28;20037;-87
2022/05/23 08:14:57;;;;;;;5.60;4.75;;;20.90;99.90;;;;;;5026877;28;20037;-86
2022/05/23 08:17:23;;;;;;;8.73;5.88;;;21.10;99.90;;;;;;5021404;28;20044;-87
2022/05/23 08:19:49;;;;;;;9.55;5.25;;;20.90;99.90;;;;;;5046557;28;20090;-87
2022/05/23 08:22:16;;;;;;;6.93;5.32;;;21.10;99.90;;;;;;5039938;28;20056;-86
2022/05/23 08:24:42;;;;;;;9.88;4.90;;;21.20;99.90;;;;;;5030459;28;20272;-86
2022/05/23 08:27:08;;;;;;;7.50;5.35;;;21.00;99.90;;;;;;5060412;28;20094;-87
2022/05/23 08:29:35;;;;;;;9.35;5.15;;;21.20;99.90;;;;;;5022984;28;20382;-86
2022/05/23 08:32:06;;;;;;;6.65;5.07;;;21.10;99.90;;;;;;5040182;28;20044;-86
2022/05/23 08:34:32;;;;;;;7.55;5.00;;;21.10;99.90;;;;;;5024276;28;20032;-85
2022/05/23 08:36:58;;;;;;;6.95;5.00;;;21.20;99.90;;;;;;5052641;28;20412;-86
2022/05/23 08:39:25;;;;;;;7.63;5.10;;;21.20;99.90;;;;;;5064032;28;20049;-87
2022/05/23 08:41:52;;;;;;;7.63;5.20;;;21.50;99.90;;;;;;5022841;28;20047;-86
2022/05/23 08:44:39;;;;;;;7.25;4.93;;;21.70;99.90;;;;;;5041310;28;20507;-86
2022/05/23 08:47:11;;;;;;;7.55;4.55;;;21.80;99.90;;;;;;5022872;28;20051;-86
2022/05/23 08:49:45;;;;;;;5.65;4.53;;;21.70;99.90;;;;;;5042084;28;20397;-86
2022/05/23 08:52:26;;;;;;;8.10;4.75;;;21.90;99.90;;;;;;5044994;28;20358;-86
2022/05/23 08:55:46;;;;;;;10.10;5.15;;;22.00;99.90;;;;;;5024984;28;20041;-87
2022/05/23 08:58:36;;;;;;;6.55;4.93;;;22.50;99.90;;;;;;5003525;28;20045;-87
2022/05/23 09:01:17;;;;;;;6.25;5.30;;;22.40;99.90;;;;;;5017679;28;20053;-87
2022/05/23 09:03:59;;;;;;;6.72;4.88;;;22.60;99.90;;;;;;5065281;28;20077;-86
2022/05/23 09:06:29;;;;;;;10.20;5.28;;;22.90;99.90;;;;;;5048668;28;20174;-86
2022/05/23 09:09:06;;;;;;;8.95;5.00;;;23.00;99.90;;;;;;5065482;28;20033;-86
2022/05/23 09:11:44;;;;;;;9.25;5.30;;;23.00;99.90;;;;;;5042444;28;20403;-87
2022/05/23 09:14:13;;;;;;;8.18;4.65;;;23.20;99.90;;;;;;5022409;28;20049;-86
2022/05/23 09:16:46;;;;;;;8.30;4.57;;;23.30;99.90;;;;;;5072096;28;20034;-86
2022/05/23 09:19:31;;;;;;;7.38;4.43;;;23.30;99.90;;;;;;5026281;28;20366;-86
2022/05/23 09:22:13;;;;;;;4.45;3.63;;;23.50;99.90;;;;;;5041519;28;20055;-87
2022/05/23 09:24:41;;;;;;;7.95;3.67;;;23.60;99.90;;;;;;5053514;28;20095;-86
2022/05/23 09:27:15;;;;;;;10.35;4.10;;;23.70;99.90;;;;;;5056025;28;20188;-86
2022/05/23 09:29:40;;;;;;;4.75;3.58;;;23.60;99.90;;;;;;5044346;28;20771;-86
2022/05/23 09:32:10;;;;;;;7.40;4.00;;;23.60;99.90;;;;;;5041285;28;20037;-86
2022/05/23 09:34:49;;;;;;;6.50;3.47;;;23.70;99.90;;;;;;5033597;28;20033;-86
2022/05/23 09:37:46;;;;;;;5.80;3.13;;;24.30;99.90;;;;;;5044143;28;20037;-86
2022/05/23 09:40:26;;;;;;;4.38;2.90;;;24.50;99.90;;;;;;5021826;28;20049;-86
2022/05/23 09:48:24;;;;;;;4.57;3.20;;;24.50;99.90;;;;;;5069433;28;20044;-87
2022/05/23 09:51:07;;;;;;;4.53;3.05;;;24.30;99.90;;;;;;5045261;28;20041;-86
2022/05/23 09:53:52;;;;;;;7.13;2.88;;;24.50;99.90;;;;;;5049931;28;20052;-87
2022/05/23 09:56:39;;;;;;;5.30;3.30;;;24.70;99.90;;;;;;5068177;28;20041;-86
2022/05/23 09:59:20;;;;;;;6.30;3.13;;;24.40;99.90;;;;;;5047597;28;20102;-86
2022/05/23 10:01:49;;;;;;;7.30;3.15;;;24.10;99.90;;;;;;5020404;28;20453;-86
2022/05/23 10:04:17;;;;;;;4.68;3.00;;;24.00;99.90;;;;;;5024029;28;20103;-86
2022/05/23 10:06:48;;;;;;;5.00;2.55;;;23.90;99.90;;;;;;5040703;28;20079;-87
2022/05/23 10:09:30;;;;;;;4.88;2.60;;;24.30;99.90;;;;;;5030073;28;20082;-87
2022/05/23 10:12:00;;;;;;;5.18;2.80;;;24.40;99.90;;;;;;5024190;28;20243;-86
2022/05/23 10:14:47;;;;;;;3.45;2.50;;;24.40;99.90;;;;;;5023995;28;20040;-87
2022/05/23 10:17:35;;;;;;;5.50;2.50;;;24.50;99.90;;;;;;5039278;28;20057;-88
2022/05/23 10:20:23;;;;;;;6.22;2.60;;;24.30;99.90;;;;;;5038523;28;20466;-87
2022/05/23 10:23:12;;;;;;;4.97;2.83;;;24.70;99.90;;;;;;5024662;28;20043;-87
2022/05/23 10:25:51;;;;;;;5.68;2.75;;;24.70;99.90;;;;;;5064947;28;20112;-87
2022/05/23 10:28:24;;;;;;;5.13;2.30;;;25.10;99.90;;;;;;5027274;28;20122;-87
2022/05/23 10:31:02;;;;;;;3.25;2.58;;;25.20;99.90;;;;;;5027709;28;20071;-86
2022/05/23 10:33:30;;;;;;;4.30;2.60;;;25.50;99.90;;;;;;5028682;28;20048;-87
2022/05/23 10:36:31;;;;;;;4.38;2.65;;;25.90;99.90;;;;;;5042220;28;20472;-87
2022/05/23 10:42:08;;;;;;;4.70;2.03;;;25.80;99.90;;;;;;5065920;28;20461;-87
2022/05/23 10:44:54;;;;;;;4.57;2.30;;;25.70;98.50;;;;;;5046952;28;20447;-87
2022/05/23 10:47:20;;;;;;;5.68;1.90;;;26.10;99.90;;;;;;5033436;28;20561;-87
2022/05/23 10:49:48;;;;;;;3.90;2.15;;;26.20;99.90;;;;;;5024976;28;20048;-87
2022/05/23 10:52:32;;;;;;;3.08;2.00;;;25.90;96.80;;;;;;5025866;28;20039;-87
2022/05/23 10:55:33;;;;;;;4.63;2.10;;;26.10;97.60;;;;;;5024795;28;20657;-87
2022/05/23 10:58:17;;;;;;;3.78;2.10;;;26.30;94.50;;;;;;5023338;28;20043;-87
2022/05/23 11:01:06;;;;;;;5.88;2.60;;;26.00;91.60;;;;;;5022166;28;20087;-87
2022/05/23 11:04:25;;;;;;;5.22;2.28;;;26.00;92.30;;;;;;5040791;28;20048;-88
2022/05/23 11:07:18;;;;;;;6.25;2.72;;;26.20;94.30;;;;;;5025385;28;20093;-87
2022/05/23 11:10:04;;;;;;;4.97;2.63;;;26.40;94.70;;;;;;5039948;28;20230;-87
2022/05/23 11:12:45;;;;;;;5.22;2.20;;;26.40;91.20;;;;;;5020669;28;20041;-87
2022/05/23 11:15:26;;;;;;;8.68;2.25;;;27.00;90.20;;;;;;5027307;28;20102;-87
2022/05/23 11:18:10;;;;;;;4.53;2.40;;;26.70;87.50;;;;;;5027811;28;20097;-87
2022/05/23 11:20:38;;;;;;;5.20;2.30;;;26.70;86.90;;;;;;5025478;28;20102;-87
2022/05/23 11:23:25;;;;;;;5.22;2.40;;;27.10;85.10;;;;;;5024970;28;20132;-87
2022/05/23 11:26:00;;;;;;;5.85;2.60;;;26.90;83.10;;;;;;5031175;28;20056;-88
2022/05/23 11:34:42;;;;;;;5.30;2.20;;;27.50;87.70;;;;;;5046714;28;20376;-88
2022/05/23 11:39:50;;;;;;;5.13;2.40;;;27.00;79.40;;;;;;5062546;28;20052;-87
2022/05/23 11:42:22;;;;;;;7.05;2.65;;;26.80;74.10;;;;;;5038351;28;20426;-87
2022/05/23 11:44:50;;;;;;;5.63;2.58;;;26.80;81.70;;;;;;5024640;28;20683;-88
2022/05/23 11:47:25;;;;;;;4.70;2.28;;;27.00;77.80;;;;;;5023890;28;20048;-87
2022/05/23 11:50:05;;;;;;;5.43;2.58;;;27.20;77.20;;;;;;5068988;28;20044;-87
2022/05/23 11:52:40;;;;;;;5.57;2.30;;;27.60;84.50;;;;;;5023883;28;20447;-88
2022/05/23 11:55:12;;;;;;;5.18;1.98;;;28.20;84.70;;;;;;5045512;28;20064;-87
2022/05/23 11:57:41;;;;;;;3.30;2.10;;;27.90;82.20;;;;;;5031672;28;20049;-88
2022/05/23 12:00:25;;;;;;;4.50;2.00;;;27.20;73.40;;;;;;5045439;28;20048;-88
2022/05/23 12:03:11;;;;;;;5.77;2.10;;;27.10;65.30;;;;;;5035966;28;20048;-87
2022/05/23 12:05:37;;;;;;;3.38;1.90;;;27.00;66.10;;;;;;5023293;28;20286;-88
2022/05/23 12:08:27;;;;;;;5.13;2.20;;;27.20;69.30;;;;;;5021510;28;20040;-88
2022/05/23 12:10:55;;;;;;;2.88;2.10;;;27.20;66.80;;;;;;5069667;28;20458;-89
2022/05/23 12:13:37;;;;;;;3.90;2.35;;;26.70;58.80;;;;;;5027876;28;20989;-88
2022/05/23 12:16:29;;;;;;;4.05;1.73;;;27.10;66.00;;;;;;5048822;28;20052;-88
2022/05/23 12:19:20;;;;;;;3.35;1.85;;;27.30;63.30;;;;;;5023202;28;20114;-88
2022/05/23 12:21:47;;;;;;;5.03;1.98;;;27.70;67.60;;;;;;5042949;28;20502;-89
2022/05/23 12:24:31;;;;;;;3.05;2.00;;;27.70;76.20;;;;;;5042912;28;20048;-88
2022/05/23 12:27:03;;;;;;;6.77;2.17;;;28.60;68.30;;;;;;5049909;28;20117;-88
2022/05/23 12:29:34;;;;;;;6.18;2.20;;;28.90;73.70;;;;;;5027842;28;20053;-89
2022/05/23 12:32:25;;;;;;;3.75;2.10;;;28.90;69.00;;;;;;5024278;28;20041;-88
2022/05/23 12:34:53;;;;;;;2.78;2.17;;;28.30;61.90;;;;;;5047736;28;20521;-88
2022/05/23 12:37:34;;;;;;;4.63;1.90;;;27.40;60.10;;;;;;5035446;28;20051;-88
2022/05/23 12:40:13;;;;;;;4.95;2.20;;;27.50;55.10;;;;;;5047054;28;20508;-88
2022/05/23 12:43:18;;;;;;;4.45;2.22;;;27.50;56.00;;;;;;5049402;28;20544;-88
2022/05/23 12:46:04;;;;;;;5.57;2.53;;;26.50;48.00;;;;;;5054687;28;20040;-88
2022/05/23 12:49:03;;;;;;;3.75;2.35;;;26.60;54.20;;;;;;5029336;28;20264;-88
2022/05/23 12:51:48;;;;;;;4.45;2.30;;;26.00;48.40;;;;;;5053419;28;20033;-89
2022/05/23 12:54:34;;;;;;;3.93;2.50;;;25.80;49.40;;;;;;5052176;28;20632;-88
2022/05/23 12:57:12;;;;;;;3.10;2.17;;;25.90;50.60;;;;;;5047757;28;20195;-89
2022/05/23 12:59:41;;;;;;;4.80;2.28;;;26.30;55.50;;;;;;5024751;28;20044;-88
2022/05/23 13:02:45;;;;;;;4.43;2.20;;;26.10;53.50;;;;;;5055158;28;20123;-88
2022/05/23 13:05:14;;;;;;;4.35;2.03;;;26.20;45.70;;;;;;5045675;28;20094;-88
2022/05/23 13:07:52;;;;;;;3.05;1.80;;;25.90;50.30;;;;;;5064371;28;20040;-88
2022/05/23 13:10:41;;;;;;;5.57;2.08;;;26.10;51.50;;;;;;5050050;28;20051;-89
2022/05/23 13:13:19;;;;;;;7.20;2.13;;;26.30;48.60;;;;;;5070185;28;20365;-88
2022/05/23 13:15:46;;;;;;;3.60;2.20;;;26.10;50.20;;;;;;5029785;28;20068;-88
2022/05/23 13:23:45;;;;;;;5.38;2.42;;;25.30;42.90;;;;;;5070153;28;20414;-89
2022/05/23 13:26:15;;;;;;;3.88;2.25;;;25.30;39.70;;;;;;5067897;28;20118;-89
2022/05/23 13:28:43;;;;;;;4.13;2.10;;;25.00;38.20;;;;;;5028536;28;20451;-89
2022/05/23 13:31:24;;;;;;;6.50;2.40;;;25.20;43.40;;;;;;5049228;28;20098;-88
2022/05/23 13:33:50;;;;;;;3.65;2.22;;;25.00;40.00;;;;;;5025612;28;20116;-87
2022/05/23 13:36:16;;;;;;;4.80;2.40;;;24.90;41.00;;;;;;5045648;28;20121;-89
2022/05/23 13:38:59;;;;;;;3.92;2.53;;;24.90;43.20;;;;;;5056714;28;20041;-88
2022/05/23 13:41:28;;;;;;;3.60;2.50;;;25.00;48.50;;;;;;5027943;28;20033;-87
2022/05/23 13:43:54;;;;;;;4.07;2.35;;;24.80;57.90;;;;;;5045676;28;20185;-89
2022/05/23 13:46:33;;;;;;;4.43;2.72;;;24.60;52.80;;;;;;5051961;28;20502;-88
2022/05/23 13:49:05;;;;;;;4.18;2.60;;;24.40;62.60;;;;;;5028121;28;20048;-89
2022/05/23 13:51:53;;;;;;;5.50;2.42;;;24.40;60.50;;;;;;5024003;28;20041;-88
2022/05/23 13:54:22;;;;;;;6.05;2.70;;;24.30;69.70;;;;;;5048748;28;20336;-88
2022/05/23 13:56:52;;;;;;;6.47;2.92;;;24.30;70.20;;;;;;5032597;28;20045;-88
2022/05/23 13:59:23;;;;;;;8.15;2.78;;;24.50;65.90;;;;;;5048398;28;20036;-88
2022/05/23 14:02:01;;;;;;;4.60;2.90;;;24.60;74.40;;;;;;5029013;28;20068;-89
2022/05/23 14:04:32;;;;;;;6.07;3.10;;;24.90;65.40;;;;;;5047072;28;20095;-89
2022/05/23 14:07:10;;;;;;;5.57;2.95;;;25.00;76.60;;;;;;5027583;28;20041;-88
2022/05/23 14:09:54;;;;;;;6.35;2.50;;;25.20;71.10;;;;;;5025766;28;20033;-89
2022/05/23 14:12:26;;;;;;;6.97;3.00;;;25.50;94.10;;;;;;5047176;28;20170;-88
2022/05/23 14:15:05;;;;;;;5.25;2.60;;;25.80;90.50;;;;;;5027585;28;20499;-89
2022/05/23 14:17:37;;;;;;;3.92;2.20;;;25.90;80.30;;;;;;5042900;28;20115;-89
2022/05/23 14:20:32;;;;;;;5.07;2.65;;;26.20;74.90;;;;;;5029450;28;20423;-89
2022/05/23 14:23:18;;;;;;;4.22;2.70;;;26.50;89.50;;;;;;5029198;28;20036;-90